Time;durP1;ratioP1;P1;durP2;ratioP2;P2;SDS_P1;SDS_P2;PMS_P1;PMS_P2;Temp;Humidity;BMP_temperature;BMP_pressure;BME280_temperature;BME280_humidity;BME280_pressure;Samples;Min_cycle;Max_cycle;Signal;HPM_P1;HPM_P2
2022/09/16 00:48:54;;;;;;;4.15;2.75;;;17.70;94.30;;;;;;5043395;28;20053;-64
2022/09/16 00:51:21;;;;;;;4.22;2.92;;;17.60;94.30;;;;;;5046555;28;20025;-65
2022/09/16 03:55:46;;;;;;;8.13;4.65;;;17.50;94.00;;;;;;5054623;28;20033;-64
2022/09/16 06:47:02;;;;;;;6.82;3.88;;;17.60;93.80;;;;;;5031831;28;20069;-68
2022/09/16 06:49:30;;;;;;;7.63;4.43;;;17.70;93.80;;;;;;5022963;28;20068;-67
2022/09/16 06:51:55;;;;;;;9.38;4.40;;;17.60;93.70;;;;;;5029198;28;20041;-67
2022/09/16 06:54:21;;;;;;;8.88;4.18;;;17.60;93.50;;;;;;5022754;28;20504;-69
2022/09/16 06:56:46;;;;;;;8.70;5.20;;;17.60;93.40;;;;;;5019231;28;20446;-69
2022/09/16 06:59:13;;;;;;;8.98;4.70;;;17.60;93.30;;;;;;5018827;28;20025;-69
2022/09/16 07:01:39;;;;;;;11.10;4.50;;;17.60;93.20;;;;;;5019239;28;20014;-68
2022/09/16 07:04:09;;;;;;;6.65;4.47;;;17.60;93.10;;;;;;5019510;28;20101;-66
2022/09/16 07:06:45;;;;;;;7.82;4.13;;;17.60;93.00;;;;;;5025816;28;20026;-68
2022/09/16 07:09:13;;;;;;;6.15;4.18;;;17.60;92.90;;;;;;5016729;28;20026;-69
2022/09/16 07:11:39;;;;;;;5.25;4.10;;;17.60;92.80;;;;;;5022705;28;20030;-69
2022/09/16 07:38:40;;;;;;;15.02;5.90;;;17.50;92.40;;;;;;5012107;28;20153;-68
2022/09/16 08:29:44;;;;;;;7.13;3.97;;;17.50;92.10;;;;;;4914845;29;20402;-68
2022/09/16 08:32:10;;;;;;;7.82;3.88;;;17.50;92.00;;;;;;4910937;29;20080;-68
2022/09/16 08:34:38;;;;;;;14.00;4.55;;;17.50;91.90;;;;;;4895511;29;20117;-68
2022/09/16 08:37:04;;;;;;;7.25;3.45;;;17.40;91.80;;;;;;4907094;29;20044;-68
2022/09/16 08:39:29;;;;;;;5.97;3.75;;;17.50;91.80;;;;;;4910449;29;20418;-68
2022/09/16 08:42:42;;;;;;;5.10;3.70;;;17.40;91.80;;;;;;4910617;29;20055;-68
2022/09/16 08:45:34;;;;;;;6.32;3.67;;;17.50;91.80;;;;;;4899275;29;20050;-68
2022/09/16 08:48:27;;;;;;;4.35;3.17;;;17.40;91.60;;;;;;4912082;29;20040;-68
2022/09/16 08:50:53;;;;;;;10.90;3.08;;;17.40;91.60;;;;;;4885794;29;20051;-69
2022/09/16 08:53:35;;;;;;;4.53;2.50;;;17.40;91.50;;;;;;4902903;29;20132;-68
2022/09/16 08:56:14;;;;;;;9.60;2.20;;;17.50;91.50;;;;;;4887748;29;20037;-69
2022/09/16 08:58:50;;;;;;;3.22;1.85;;;17.40;91.40;;;;;;4906950;29;20422;-68
2022/09/16 09:01:39;;;;;;;6.18;3.35;;;17.40;91.30;;;;;;4949428;28;20027;-68
2022/09/16 09:04:08;;;;;;;5.72;2.33;;;17.40;91.20;;;;;;5004643;28;20099;-68
2022/09/16 09:07:06;;;;;;;6.72;2.30;;;17.40;91.20;;;;;;5023070;28;20028;-68
2022/09/16 09:09:58;;;;;;;2.65;2.17;;;17.40;91.10;;;;;;5008626;28;20026;-68
2022/09/16 09:12:35;;;;;;;4.38;2.00;;;17.40;91.10;;;;;;5008185;28;20034;-68
2022/09/16 09:15:22;;;;;;;4.43;2.03;;;17.40;91.00;;;;;;5026461;28;20057;-68
2022/09/16 09:18:15;;;;;;;4.97;2.22;;;17.30;91.00;;;;;;5006011;28;20048;-68
2022/09/16 09:21:03;;;;;;;4.68;1.90;;;17.30;90.90;;;;;;5027514;28;20471;-68
2022/09/16 09:23:55;;;;;;;4.28;2.00;;;17.30;90.90;;;;;;5032463;28;20037;-68
2022/09/16 09:26:36;;;;;;;3.45;1.80;;;17.30;90.90;;;;;;5016164;28;20386;-68
2022/09/16 09:29:28;;;;;;;2.05;1.40;;;17.30;90.80;;;;;;5017173;28;20120;-68
2022/09/16 09:32:04;;;;;;;2.20;1.40;;;17.30;90.70;;;;;;4937689;29;20118;-68
2022/09/16 09:34:41;;;;;;;1.88;1.52;;;17.30;90.70;;;;;;4953749;29;20051;-68
2022/09/16 09:37:25;;;;;;;11.32;1.65;;;17.30;90.60;;;;;;4948721;29;20048;-69
2022/09/16 09:43:52;;;;;;;8.35;2.08;;;17.20;90.50;;;;;;4955454;29;20038;-68
2022/09/16 09:46:33;;;;;;;1.52;1.20;;;17.20;90.40;;;;;;4954576;29;20035;-68
2022/09/16 09:49:19;;;;;;;4.85;1.38;;;17.20;90.40;;;;;;4924990;29;20031;-69
2022/09/16 10:15:44;;;;;;;1.30;1.20;;;17.20;90.30;;;;;;5025486;28;20033;-69
2022/09/16 10:18:31;;;;;;;5.40;1.98;;;17.20;90.30;;;;;;5019360;28;20080;-66
2022/09/16 10:21:13;;;;;;;3.05;2.00;;;17.10;90.30;;;;;;5022367;28;20467;-66
2022/09/16 10:23:39;;;;;;;3.58;1.60;;;17.10;90.30;;;;;;5025581;28;20032;-65
2022/09/16 10:26:07;;;;;;;1.77;1.17;;;17.10;90.40;;;;;;5010546;28;20394;-65
2022/09/16 10:32:08;;;;;;;3.40;1.27;;;17.10;90.30;;;;;;4951753;29;20062;-65
2022/09/16 10:34:38;;;;;;;1.63;1.10;;;17.10;90.30;;;;;;4924561;29;20061;-67
2022/09/16 10:40:16;;;;;;;2.85;0.82;;;17.10;90.40;;;;;;5060988;23;19967;-67
2022/09/16 10:42:46;;;;;;;1.05;0.90;;;17.10;90.40;;;;;;5043900;28;20025;-67
2022/09/16 10:45:27;;;;;;;1.52;1.20;;;17.10;90.30;;;;;;5050531;28;20029;-67
2022/09/16 10:48:10;;;;;;;4.13;1.10;;;17.10;90.40;;;;;;5049683;28;20033;-67
2022/09/16 10:50:35;;;;;;;1.83;1.20;;;17.10;90.40;;;;;;5042296;28;20462;-67
2022/09/16 10:53:01;;;;;;;2.03;1.27;;;17.10;90.50;;;;;;5049520;28;20083;-66
2022/09/16 10:55:28;;;;;;;2.17;1.25;;;17.10;90.50;;;;;;5050178;28;20542;-67
2022/09/16 10:58:14;;;;;;;4.85;1.50;;;17.10;90.50;;;;;;5031520;28;20025;-67
2022/09/16 11:00:50;;;;;;;1.20;1.10;;;17.10;90.60;;;;;;5050235;28;20431;-67
2022/09/16 11:07:11;;;;;;;3.22;1.48;;;17.10;90.70;;;;;;5040665;28;20378;-66
2022/09/16 11:09:42;;;;;;;4.30;1.73;;;17.10;90.70;;;;;;5044380;28;20021;-66
2022/09/16 11:12:32;;;;;;;1.55;1.45;;;17.10;90.70;;;;;;5032275;28;20124;-69
2022/09/16 11:15:15;;;;;;;2.42;1.50;;;17.10;90.70;;;;;;5044266;28;20052;-69
2022/09/16 11:17:56;;;;;;;5.82;2.17;;;17.20;90.80;;;;;;5041404;28;20033;-69
2022/09/16 11:20:41;;;;;;;5.63;2.10;;;17.20;90.80;;;;;;5047890;28;20467;-69
2022/09/16 11:23:18;;;;;;;5.45;2.67;;;17.20;90.80;;;;;;5047193;28;20517;-69
2022/09/16 11:26:02;;;;;;;6.82;2.30;;;17.20;90.90;;;;;;5040655;28;20130;-69
2022/09/16 11:28:42;;;;;;;3.28;1.90;;;17.20;91.20;;;;;;5030911;28;20025;-69
2022/09/16 11:31:17;;;;;;;6.80;2.00;;;17.20;90.90;;;;;;5049211;28;20082;-69
2022/09/16 11:34:04;;;;;;;5.43;2.00;;;17.20;90.90;;;;;;5040852;28;20021;-69
2022/09/16 11:36:44;;;;;;;10.48;2.33;;;17.30;91.00;;;;;;5048842;28;20563;-69
2022/09/16 11:39:31;;;;;;;6.18;1.70;;;17.20;91.00;;;;;;5048994;28;20076;-68
2022/09/16 11:42:25;;;;;;;8.77;2.25;;;17.30;91.10;;;;;;5043936;28;20025;-69
2022/09/16 11:44:59;;;;;;;1.90;1.70;;;17.30;91.10;;;;;;5034833;28;20021;-68
2022/09/16 11:47:28;;;;;;;5.43;2.17;;;17.30;91.10;;;;;;5048994;28;20087;-69
2022/09/16 11:50:07;;;;;;;3.55;2.05;;;17.30;91.10;;;;;;5031949;28;20284;-69
2022/09/16 11:53:00;;;;;;;2.83;1.90;;;17.30;91.10;;;;;;5049978;28;20088;-68
2022/09/16 11:55:48;;;;;;;4.00;1.58;;;17.30;91.20;;;;;;5048785;28;20104;-69
2022/09/16 11:58:32;;;;;;;4.03;2.13;;;17.30;91.20;;;;;;5048588;28;20478;-69
2022/09/16 12:01:03;;;;;;;4.10;1.67;;;17.30;91.20;;;;;;5049632;28;20032;-68
2022/09/16 12:04:05;;;;;;;2.88;1.88;;;17.30;91.20;;;;;;5049257;28;20044;-69
2022/09/16 12:06:39;;;;;;;3.40;1.70;;;17.40;91.30;;;;;;5048925;28;20099;-69
2022/09/16 12:09:11;;;;;;;6.05;1.90;;;17.30;91.30;;;;;;5048564;28;20060;-69
2022/09/16 12:12:07;;;;;;;2.72;1.65;;;17.40;91.30;;;;;;5049606;28;20021;-69
2022/09/16 12:14:42;;;;;;;2.72;1.70;;;17.40;91.40;;;;;;5049446;28;20032;-69
2022/09/16 12:17:15;;;;;;;5.30;1.80;;;17.40;91.40;;;;;;5048428;28;20592;-69
2022/09/16 12:19:45;;;;;;;3.88;2.05;;;17.40;91.40;;;;;;5053393;28;20064;-69
2022/09/16 12:22:25;;;;;;;3.17;1.52;;;17.40;91.40;;;;;;5034972;28;20422;-69
2022/09/16 12:25:11;;;;;;;2.47;1.60;;;17.40;91.40;;;;;;5045033;28;20107;-69
2022/09/16 12:28:02;;;;;;;3.47;1.70;;;17.40;91.40;;;;;;5050747;28;20032;-69
2022/09/16 12:30:35;;;;;;;3.60;1.70;;;17.50;91.50;;;;;;5053431;28;20024;-69
2022/09/16 12:33:21;;;;;;;3.20;2.15;;;17.40;91.50;;;;;;5035662;28;20037;-69
2022/09/16 12:35:57;;;;;;;1.98;1.60;;;17.50;91.50;;;;;;5052924;28;20409;-69
2022/09/16 12:38:23;;;;;;;3.63;1.55;;;17.50;91.60;;;;;;5052421;28;20386;-69
2022/09/16 12:41:10;;;;;;;2.38;1.63;;;17.50;91.50;;;;;;5034163;28;20187;-69
2022/09/16 12:44:10;;;;;;;2.83;1.63;;;17.50;91.60;;;;;;5052973;28;20134;-69
2022/09/16 12:47:00;;;;;;;1.95;1.63;;;17.50;91.60;;;;;;5051718;28;20025;-69
2022/09/16 12:49:54;;;;;;;4.78;1.73;;;17.50;91.60;;;;;;5052870;28;20052;-69
2022/09/16 12:52:45;;;;;;;4.65;1.67;;;17.50;91.60;;;;;;5048583;28;20498;-69
2022/09/16 12:55:29;;;;;;;2.33;1.63;;;17.60;91.60;;;;;;5046012;28;20063;-69
2022/09/16 12:58:23;;;;;;;2.95;1.70;;;17.60;91.60;;;;;;5043764;28;20013;-69
2022/09/16 13:01:09;;;;;;;3.78;1.80;;;17.60;91.60;;;;;;5052466;28;20477;-69
2022/09/16 13:03:41;;;;;;;4.90;1.75;;;17.60;91.70;;;;;;5052232;28;20060;-69
2022/09/16 13:06:20;;;;;;;4.15;1.90;;;17.60;91.70;;;;;;5051792;28;20025;-69
2022/09/16 13:08:46;;;;;;;6.30;1.70;;;17.60;91.70;;;;;;5052691;28;20071;-69
2022/09/16 13:11:21;;;;;;;4.40;1.42;;;17.60;91.60;;;;;;5051391;28;20465;-69
2022/09/16 13:13:50;;;;;;;5.93;1.65;;;17.60;91.70;;;;;;5051899;28;20056;-69
2022/09/16 13:16:35;;;;;;;5.68;1.88;;;17.60;92.00;;;;;;5051491;28;20079;-69
2022/09/16 13:19:51;;;;;;;3.33;1.63;;;17.60;91.70;;;;;;5044940;28;20036;-69
2022/09/16 13:22:29;;;;;;;5.28;1.52;;;17.60;91.70;;;;;;4984914;28;20026;-69
2022/09/16 13:25:08;;;;;;;5.50;1.92;;;17.60;91.70;;;;;;4989335;28;20554;-69
2022/09/16 13:27:36;;;;;;;2.78;1.52;;;17.60;91.70;;;;;;4988059;28;20042;-69
2022/09/16 13:30:07;;;;;;;4.03;1.33;;;17.60;91.70;;;;;;4989370;28;20030;-69
2022/09/16 13:33:04;;;;;;;1.58;1.25;;;17.70;91.80;;;;;;4973803;28;20049;-69
2022/09/16 13:35:44;;;;;;;4.72;1.40;;;17.70;91.80;;;;;;4983073;28;20034;-69
2022/09/16 13:38:18;;;;;;;7.05;1.50;;;17.60;91.80;;;;;;4982558;28;20248;-69
2022/09/16 13:40:58;;;;;;;3.78;1.48;;;17.60;91.80;;;;;;4972528;28;20518;-69
2022/09/16 13:43:36;;;;;;;13.38;2.00;;;17.60;91.80;;;;;;4989878;28;20410;-69
2022/09/16 13:46:08;;;;;;;2.55;1.40;;;17.70;91.80;;;;;;4981590;28;20039;-69
2022/09/16 13:48:39;;;;;;;3.45;1.30;;;17.70;91.80;;;;;;4989437;28;20399;-69
2022/09/16 13:51:18;;;;;;;5.00;1.58;;;17.70;91.80;;;;;;4990031;28;20029;-69
2022/09/16 13:53:46;;;;;;;2.03;1.25;;;17.70;91.80;;;;;;5031418;28;20091;-69
2022/09/16 13:56:12;;;;;;;5.35;1.52;;;17.70;91.80;;;;;;5049911;28;20064;-69
2022/09/16 13:58:56;;;;;;;6.60;1.90;;;17.70;91.80;;;;;;5051441;28;20049;-69
2022/09/16 14:01:54;;;;;;;5.38;1.50;;;17.70;91.80;;;;;;5051424;28;20080;-69
2022/09/16 14:04:35;;;;;;;2.83;1.40;;;17.70;91.80;;;;;;5009658;28;20486;-69
2022/09/16 14:07:14;;;;;;;3.00;1.60;;;17.70;91.80;;;;;;5032515;28;20075;-69
2022/09/16 14:09:57;;;;;;;2.20;1.58;;;17.70;91.80;;;;;;5050095;28;20151;-69
2022/09/16 14:12:44;;;;;;;7.90;1.80;;;17.70;91.80;;;;;;5051874;28;20083;-69
2022/09/16 14:15:10;;;;;;;6.82;1.52;;;17.70;91.80;;;;;;5036216;28;20025;-69
2022/09/16 14:17:43;;;;;;;3.88;1.50;;;17.70;91.80;;;;;;5032219;28;20060;-69
2022/09/16 14:20:19;;;;;;;3.38;1.65;;;17.70;91.80;;;;;;5025400;28;20086;-69
2022/09/16 14:22:44;;;;;;;4.78;1.40;;;17.70;91.80;;;;;;5051187;28;20024;-69
2022/09/16 14:32:02;;;;;;;5.07;1.85;;;17.70;91.80;;;;;;4962450;28;20384;-69
2022/09/16 14:34:33;;;;;;;4.13;1.50;;;17.70;91.90;;;;;;4963551;28;20116;-69
2022/09/16 14:36:59;;;;;;;;;;;17.70;91.90;;;;;;4943807;28;20477;-69
2022/09/16 14:39:26;;;;;;;4.50;1.65;;;17.70;91.90;;;;;;4961219;28;19920;-69
2022/09/16 14:42:01;;;;;;;2.55;1.50;;;17.70;91.90;;;;;;4957978;28;20066;-69
2022/09/16 14:44:38;;;;;;;5.30;1.10;;;17.70;91.90;;;;;;4957609;28;20042;-69
2022/09/16 14:47:21;;;;;;;2.67;1.27;;;17.70;91.90;;;;;;4959762;28;20027;-69
2022/09/16 14:49:51;;;;;;;2.13;1.20;;;17.70;91.90;;;;;;4961289;28;20338;-69
2022/09/16 14:52:25;;;;;;;2.92;1.33;;;17.70;91.90;;;;;;4961723;28;20065;-69
2022/09/16 14:54:51;;;;;;;1.48;1.15;;;17.70;91.90;;;;;;4942996;28;20480;-69
2022/09/16 14:57:24;;;;;;;4.30;1.23;;;17.70;91.90;;;;;;4940893;29;20083;-69
2022/09/16 14:59:53;;;;;;;6.80;1.70;;;17.70;91.90;;;;;;4942678;28;20512;-69
2022/09/16 15:05:44;;;;;;;3.50;1.75;;;17.70;91.90;;;;;;5020157;28;20039;-68
2022/09/16 15:08:44;;;;;;;6.25;1.40;;;17.70;91.90;;;;;;5039501;28;20032;-69
2022/09/16 15:11:14;;;;;;;4.75;1.48;;;17.70;91.90;;;;;;5031907;28;20033;-69
2022/09/16 15:13:40;;;;;;;;;;;17.70;91.90;;;;;;5032700;28;20033;-69
2022/09/16 15:16:06;;;;;;;3.78;1.50;;;17.70;91.90;;;;;;5049084;28;19973;-69
2022/09/16 15:18:35;;;;;;;2.10;1.55;;;17.70;91.80;;;;;;5049842;28;20493;-69
2022/09/16 15:21:12;;;;;;;2.65;1.10;;;17.70;91.80;;;;;;5049947;28;20029;-69
2022/09/16 15:23:39;;;;;;;1.35;1.20;;;17.70;91.80;;;;;;5047766;28;20040;-69
2022/09/16 15:26:25;;;;;;;3.38;1.30;;;17.70;91.80;;;;;;5048045;28;20095;-69
2022/09/16 15:29:16;;;;;;;3.67;1.38;;;17.70;91.80;;;;;;5049983;28;20025;-69
2022/09/16 15:31:43;;;;;;;2.28;1.50;;;17.70;91.80;;;;;;5040342;28;20107;-69
2022/09/16 15:34:29;;;;;;;4.10;1.23;;;17.70;91.80;;;;;;5049916;28;20040;-69
2022/09/16 15:36:56;;;;;;;4.30;1.15;;;17.70;92.10;;;;;;5048405;28;20025;-69
2022/09/16 15:39:42;;;;;;;5.38;1.25;;;17.70;91.80;;;;;;5049515;28;20032;-69
2022/09/16 15:42:19;;;;;;;3.55;1.45;;;17.70;91.80;;;;;;5047836;28;20135;-69
2022/09/16 15:44:56;;;;;;;2.40;1.52;;;17.70;91.80;;;;;;5049554;28;20051;-69
2022/09/16 15:47:27;;;;;;;7.95;1.63;;;17.70;91.80;;;;;;5041515;28;20401;-69
2022/09/16 15:50:07;;;;;;;1.88;1.30;;;17.70;91.80;;;;;;5031944;28;20021;-69
2022/09/16 15:52:49;;;;;;;2.15;1.23;;;17.60;91.70;;;;;;5049553;28;20108;-69
2022/09/16 15:55:27;;;;;;;2.90;1.50;;;17.60;91.80;;;;;;5035436;28;20548;-69
2022/09/16 15:58:00;;;;;;;3.92;1.40;;;17.60;91.70;;;;;;5034842;28;20493;-69
2022/09/16 16:00:26;;;;;;;4.00;1.42;;;17.60;91.80;;;;;;5035659;28;20429;-70
2022/09/16 16:02:57;;;;;;;5.95;1.30;;;17.60;91.80;;;;;;5053800;28;20052;-69
2022/09/16 16:05:29;;;;;;;4.55;1.45;;;17.60;91.80;;;;;;5046103;28;20025;-69
2022/09/16 16:08:04;;;;;;;1.42;1.33;;;17.60;91.80;;;;;;5034682;28;20079;-69
2022/09/16 16:10:35;;;;;;;2.63;1.13;;;17.60;91.80;;;;;;5034854;28;20017;-69
2022/09/16 16:13:02;;;;;;;2.42;1.40;;;17.60;91.80;;;;;;5053832;28;20025;-69
2022/09/16 16:15:33;;;;;;;1.70;1.27;;;17.60;91.80;;;;;;5035511;28;20017;-69
2022/09/16 16:18:07;;;;;;;2.05;1.30;;;17.60;91.80;;;;;;5034639;28;20421;-69
2022/09/16 16:20:35;;;;;;;6.70;1.27;;;17.60;91.80;;;;;;5053781;28;20498;-69
2022/09/16 16:23:01;;;;;;;2.25;1.52;;;17.60;91.80;;;;;;5053319;28;20112;-69
2022/09/16 16:25:27;;;;;;;1.70;1.20;;;17.60;91.80;;;;;;5033654;28;20116;-69
2022/09/16 16:27:52;;;;;;;5.88;1.38;;;17.60;91.80;;;;;;5051366;28;20036;-69
2022/09/16 16:30:18;;;;;;;3.92;1.65;;;17.60;91.80;;;;;;5053124;28;20341;-70
2022/09/16 16:32:44;;;;;;;2.90;1.50;;;17.60;91.80;;;;;;5035348;28;20028;-69
2022/09/16 16:35:10;;;;;;;2.15;1.30;;;17.60;91.80;;;;;;5035434;28;20392;-69
2022/09/16 16:37:36;;;;;;;6.65;1.42;;;17.60;91.90;;;;;;5052228;28;20519;-69
2022/09/16 16:40:03;;;;;;;2.13;1.40;;;17.60;91.80;;;;;;5052671;28;20490;-69
2022/09/16 16:42:30;;;;;;;2.20;1.40;;;17.60;91.80;;;;;;5034127;28;20099;-69
2022/09/16 16:44:55;;;;;;;1.85;1.67;;;17.60;91.80;;;;;;5052779;28;20029;-69
2022/09/16 16:47:21;;;;;;;2.17;1.40;;;17.60;91.80;;;;;;5051972;28;20021;-69
2022/09/16 16:49:47;;;;;;;3.25;1.70;;;17.60;91.80;;;;;;5053149;28;20643;-69
2022/09/16 16:52:12;;;;;;;3.72;1.52;;;17.60;91.80;;;;;;5034931;28;20043;-69
2022/09/16 16:54:38;;;;;;;2.45;1.60;;;17.60;91.80;;;;;;5052455;28;20100;-69
2022/09/16 16:57:04;;;;;;;1.90;1.48;;;17.60;91.90;;;;;;5051255;28;20075;-69
2022/09/16 16:59:30;;;;;;;4.78;1.60;;;17.50;91.80;;;;;;5035143;28;20017;-69
2022/09/16 17:01:56;;;;;;;2.45;1.58;;;17.50;91.90;;;;;;5052505;28;20440;-69
2022/09/16 17:04:23;;;;;;;4.00;1.77;;;17.50;91.80;;;;;;5051527;28;20124;-69
2022/09/16 17:06:49;;;;;;;2.30;1.50;;;17.50;91.80;;;;;;5051264;28;20048;-69
2022/09/16 17:09:16;;;;;;;5.22;1.80;;;17.50;91.90;;;;;;5034230;28;20087;-69
2022/09/16 17:57:29;;;;;;;4.70;2.42;;;17.40;92.00;;;;;;4954709;29;20392;-66
2022/09/16 18:07:54;;;;;;;2.85;1.70;;;17.30;92.00;;;;;;4934101;29;20024;-67
2022/09/16 20:08:13;;;;;;;1.00;0.90;;;17.10;92.00;;;;;;5072079;28;20035;-66
2022/09/16 20:10:39;;;;;;;1.90;0.80;;;17.10;92.00;;;;;;5053579;28;20190;-66
2022/09/16 21:25:37;;;;;;;6.03;1.35;;;16.90;91.90;;;;;;5076535;28;20040;-66
2022/09/16 21:53:21;;;;;;;1.08;0.90;;;16.90;91.80;;;;;;5014567;28;20042;-66
2022/09/16 23:33:01;;;;;;;2.00;0.93;;;16.90;91.70;;;;;;5074777;28;20082;-64
